Weather at Newark Liberty International Airport

Public forecast

Using degrees Fahrenheit for public forecast. Weather courtesy of forecast.io.

Current aviation weather report (METAR) for Newark Liberty International Airport

Retrieved 2021/04/20 20:51 UTC (50 minutes ago):

KEWR 202051Z 20011G19KT 10SM FEW080 SCT250 23/03 A2984 RMK AO2 PK WND 20027/2036 SLP106 T02330033 56018

Aviation forecast (TAF) for Newark Liberty International Airport

Retrieved 2021/04/20 18:24 UTC (3 hours ago):

TAF KEWR 201720Z 2018/2124 24012G19KT P6SM FEW250 FM202300 23007KT P6SM FEW110 FM211200 19007KT P6SM SCT070 FM211800 18013G22KT P6SM -SHRA OVC040 TEMPO 2119/2121 4SM -TSRA OVC035CB FM212100 26014G22KT P6SM OVC045